Laclede, Missouri
Current Conditions -  °F | °C
As of 3:55 PM on Thursday 27 Nov 2014 (Local Time) from KIRK Reporting Station
Few Clouds Few Clouds  
Wind Chill: -8°   Ceiling: Unl
Heat Index: -4°   Visibility: 10mi
Dew Point: -9°   Wind: 6mph
Humidity: 69%   Direction: 30°NNE
Pressure: 30.45"   Gusts: NA
Location:  39.79°N, 93.17°W
Report Text: KIRK 272155Z AUTO 03005KT 10SM FEW047 M04/M09 A3045 RMK AO2 SLP328 T10441094
Loading
Personal Weather Stations






























Interactive Weather Map New forecast layout! Learn more

10-Day Weather Forecast

Advertisements
Track Severe Weather on mobile